createdAt,value
2017-11-12T00:01:01.651Z,3.83
2017-11-12T00:02:11.793Z,3.77
2017-11-12T00:03:21.944Z,3.8
2017-11-12T00:04:32.412Z,3.8
2017-11-12T00:05:42.548Z,3.79
2017-11-12T00:06:53.085Z,3.8
2017-11-12T00:08:03.213Z,3.75
2017-11-12T00:09:13.349Z,3.69
2017-11-12T00:10:23.819Z,3.69
2017-11-12T00:11:34.319Z,3.73
2017-11-12T00:12:44.812Z,3.68
2017-11-12T00:13:55.307Z,3.67
2017-11-12T00:15:05.504Z,3.67
2017-11-12T00:16:15.990Z,3.65
2017-11-12T00:17:25.810Z,3.67
2017-11-12T00:18:36.272Z,3.59
2017-11-12T00:19:46.751Z,3.58
2017-11-12T00:20:57.317Z,3.58
2017-11-12T00:22:07.910Z,3.58
2017-11-12T00:23:18.405Z,3.5
2017-11-12T00:24:28.913Z,3.5
2017-11-12T00:25:39.408Z,3.52
2017-11-12T00:26:49.493Z,3.52
2017-11-12T00:27:59.980Z,3.42
2017-11-12T00:29:10.468Z,3.34
2017-11-12T00:30:21.039Z,3.44
2017-11-12T00:31:31.091Z,3.46
2017-11-12T00:32:42.216Z,3.37
2017-11-12T00:33:52.344Z,3.39
2017-11-12T00:35:02.562Z,3.4
2017-11-12T00:36:13.088Z,3.42
2017-11-12T00:37:23.160Z,3.39
2017-11-12T00:38:32.961Z,3.43
2017-11-12T00:39:43.434Z,3.29
2017-11-12T00:40:53.461Z,3.29
2017-11-12T00:42:03.626Z,3.34
2017-11-12T00:43:13.055Z,3.28
2017-11-12T00:44:23.544Z,3.32
2017-11-12T00:45:34.002Z,3.26
2017-11-12T00:46:44.509Z,3.25
2017-11-12T00:47:54.231Z,3.32
2017-11-12T00:49:04.027Z,3.28
2017-11-12T00:50:14.518Z,3.29
2017-11-12T00:51:24.308Z,3.32
2017-11-12T00:52:34.433Z,3.31
2017-11-12T00:53:44.937Z,3.37
2017-11-12T00:54:55.442Z,3.28
2017-11-12T00:56:05.925Z,3.36
2017-11-12T00:57:15.738Z,3.29
2017-11-12T00:58:25.947Z,3.28
2017-11-12T00:59:36.449Z,3.26
2017-11-12T01:00:46.616Z,3.34
2017-11-12T01:01:56.729Z,3.26
2017-11-12T01:03:06.891Z,3.28
2017-11-12T01:04:17.466Z,3.16
2017-11-12T01:05:27.998Z,3.13
2017-11-12T01:06:38.440Z,3.11
2017-11-12T01:07:48.920Z,3.13
2017-11-12T01:08:59.508Z,3.11
2017-11-12T01:10:10.050Z,3.02
2017-11-12T01:11:19.844Z,3.06
2017-11-12T01:12:29.900Z,2.97
2017-11-12T01:13:40.034Z,2.96
2017-11-12T01:14:50.714Z,2.92
2017-11-12T01:16:01.204Z,2.96
2017-11-12T01:17:11.267Z,2.94
2017-11-12T01:18:21.394Z,2.87
2017-11-12T01:19:31.855Z,2.89
2017-11-12T01:20:41.980Z,2.94
2017-11-12T01:21:51.722Z,2.87
2017-11-12T01:23:02.350Z,2.84
2017-11-12T01:24:12.479Z,2.92
2017-11-12T01:25:22.390Z,2.88
2017-11-12T01:26:32.857Z,2.82
2017-11-12T01:27:42.997Z,2.78
2017-11-12T01:28:53.217Z,2.88
2017-11-12T01:30:03.773Z,2.84
2017-11-12T01:31:14.217Z,2.73
2017-11-12T01:32:24.711Z,2.73
2017-11-12T01:33:34.998Z,2.78
2017-11-12T01:34:45.497Z,2.73
2017-11-12T01:35:55.986Z,2.73
2017-11-12T01:37:06.461Z,2.73
2017-11-12T01:38:16.590Z,2.71
2017-11-12T01:39:27.086Z,2.7
2017-11-12T01:40:37.529Z,2.74
2017-11-12T01:41:47.365Z,2.79
2017-11-12T01:42:57.832Z,2.73
2017-11-12T01:44:08.304Z,2.74
2017-11-12T01:45:18.760Z,2.73
2017-11-12T01:46:29.312Z,2.71
2017-11-12T01:47:39.852Z,2.67
2017-11-12T01:48:50.328Z,2.64
2017-11-12T01:50:00.858Z,2.66
2017-11-12T01:51:11.310Z,2.64
2017-11-12T01:52:21.434Z,2.62
2017-11-12T01:53:31.933Z,2.67
2017-11-12T01:54:42.396Z,2.67
2017-11-12T01:55:52.874Z,2.67
2017-11-12T01:57:03.341Z,2.73
2017-11-12T01:58:13.490Z,2.74
2017-11-12T01:59:23.996Z,2.69
2017-11-12T02:00:34.676Z,2.66
2017-11-12T02:01:45.344Z,2.66
2017-11-12T02:02:56.791Z,2.62
2017-11-12T02:04:06.934Z,2.67
2017-11-12T02:05:16.944Z,2.66
2017-11-12T02:06:27.499Z,2.62
2017-11-12T02:07:37.974Z,2.64
2017-11-12T02:08:48.436Z,2.56
2017-11-12T02:09:58.178Z,2.56
2017-11-12T02:11:08.232Z,2.6
2017-11-12T02:12:18.690Z,2.51
2017-11-12T02:13:28.830Z,2.49
2017-11-12T02:14:38.986Z,2.53
2017-11-12T02:15:49.014Z,2.53
2017-11-12T02:16:59.493Z,2.56
2017-11-12T02:18:09.246Z,2.59
2017-11-12T02:19:19.395Z,2.48
2017-11-12T02:20:29.957Z,2.48
2017-11-12T02:21:40.207Z,2.59
2017-11-12T02:22:50.635Z,2.49
2017-11-12T02:24:00.768Z,2.45
2017-11-12T02:25:11.236Z,2.45
2017-11-12T02:26:21.694Z,2.49
2017-11-12T02:27:31.866Z,2.52
2017-11-12T02:28:42.049Z,2.53
2017-11-12T02:29:52.518Z,2.48
2017-11-12T02:31:02.623Z,2.46
2017-11-12T02:32:13.084Z,2.52
2017-11-12T02:33:22.942Z,2.48
2017-11-12T02:34:33.639Z,2.45
2017-11-12T02:35:44.092Z,2.51
2017-11-12T02:36:54.572Z,2.53
2017-11-12T02:38:04.587Z,2.51
2017-11-12T02:39:15.120Z,2.48
2017-11-12T02:40:25.584Z,2.48
2017-11-12T02:41:36.046Z,2.46
2017-11-12T02:42:46.510Z,2.51
2017-11-12T02:43:56.660Z,2.6
2017-11-12T02:45:07.136Z,2.53
2017-11-12T02:46:17.585Z,2.59
2017-11-12T02:47:28.278Z,2.49
2017-11-12T02:48:38.916Z,2.52
2017-11-12T02:49:49.371Z,2.49
2017-11-12T02:50:59.713Z,2.62
2017-11-12T02:52:09.578Z,2.52
2017-11-12T02:53:20.147Z,2.55
2017-11-12T02:54:30.349Z,2.51
2017-11-12T02:55:40.809Z,2.64
2017-11-12T02:56:50.958Z,2.56
2017-11-12T02:58:01.518Z,2.63
2017-11-12T02:59:12.001Z,2.59
2017-11-12T03:00:22.506Z,2.62
2017-11-12T03:01:33.212Z,2.62
2017-11-12T03:02:43.329Z,2.45
2017-11-12T03:03:53.766Z,2.52
2017-11-12T03:05:04.284Z,2.46
2017-11-12T03:06:14.784Z,2.39
2017-11-12T03:07:25.384Z,2.41
2017-11-12T03:08:35.217Z,2.42
2017-11-12T03:09:45.715Z,2.31
2017-11-12T03:10:56.163Z,2.45
2017-11-12T03:12:06.525Z,2.34
2017-11-12T03:13:17.220Z,2.36
2017-11-12T03:14:27.727Z,2.33
2017-11-12T03:15:38.252Z,2.33
2017-11-12T03:16:48.703Z,2.34
2017-11-12T03:17:58.817Z,2.34
2017-11-12T03:19:09.261Z,2.42
2017-11-12T03:20:19.405Z,2.3
2017-11-12T03:21:29.561Z,2.31
2017-11-12T03:22:39.685Z,2.37
2017-11-12T03:23:50.158Z,2.33
2017-11-12T03:25:00.626Z,2.3
2017-11-12T03:26:11.062Z,2.28
2017-11-12T03:27:21.625Z,2.26
2017-11-12T03:28:32.131Z,2.26
2017-11-12T03:29:42.292Z,2.26
2017-11-12T03:30:52.815Z,2.24
2017-11-12T03:32:02.948Z,2.31
2017-11-12T03:33:13.394Z,2.3
2017-11-12T03:34:23.097Z,2.26
2017-11-12T03:35:33.579Z,2.39
2017-11-12T03:36:44.374Z,2.28
2017-11-12T03:37:54.842Z,2.36
2017-11-12T03:39:04.662Z,2.31
2017-11-12T03:40:15.104Z,2.31
2017-11-12T03:41:24.925Z,2.28
2017-11-12T03:42:35.412Z,2.31
2017-11-12T03:43:45.963Z,2.28
2017-11-12T03:44:56.701Z,2.3
2017-11-12T03:46:07.258Z,2.37
2017-11-12T03:47:17.404Z,2.31
2017-11-12T03:48:28.126Z,2.24
2017-11-12T03:49:38.623Z,2.31
2017-11-12T03:50:48.821Z,2.31
2017-11-12T03:51:59.274Z,2.34
2017-11-12T03:53:09.433Z,2.24
2017-11-12T03:54:19.197Z,2.28
2017-11-12T03:55:29.632Z,2.27
2017-11-12T03:56:40.197Z,2.42
2017-11-12T03:57:50.786Z,2.23
2017-11-12T03:59:01.251Z,2.39
2017-11-12T04:00:11.054Z,2.33
2017-11-12T04:01:21.175Z,2.41
2017-11-12T04:02:30.962Z,2.42
2017-11-12T04:03:41.435Z,2.41
2017-11-12T04:04:51.572Z,2.3
2017-11-12T04:06:02.148Z,2.37
2017-11-12T04:07:12.290Z,2.33
2017-11-12T04:08:22.440Z,2.34
2017-11-12T04:09:32.992Z,2.36
2017-11-12T04:10:42.904Z,2.34
2017-11-12T04:11:53.450Z,2.44
2017-11-12T04:13:03.919Z,2.37
2017-11-12T04:14:14.261Z,2.28
2017-11-12T04:15:24.703Z,2.44
2017-11-12T04:16:35.255Z,2.27
2017-11-12T04:17:45.692Z,2.44
2017-11-12T04:18:56.141Z,2.31
2017-11-12T04:20:06.302Z,2.3
2017-11-12T04:21:16.764Z,2.36
2017-11-12T04:22:26.247Z,2.44
2017-11-12T04:23:36.735Z,2.34
2017-11-12T04:24:47.195Z,2.31
2017-11-12T04:25:57.647Z,2.39
2017-11-12T04:27:07.375Z,2.33
2017-11-12T04:28:17.600Z,2.45
2017-11-12T04:29:27.375Z,2.31
2017-11-12T04:30:37.827Z,2.39
2017-11-12T04:31:47.836Z,2.34
2017-11-12T04:32:58.206Z,2.37
2017-11-12T04:34:07.915Z,2.31
2017-11-12T04:35:18.365Z,2.27
2017-11-12T04:36:28.814Z,2.3
2017-11-12T04:37:38.899Z,2.31
2017-11-12T04:38:49.422Z,2.28
2017-11-12T04:39:59.552Z,2.31
2017-11-12T04:41:09.622Z,2.36
2017-11-12T04:42:20.302Z,2.42
2017-11-12T04:43:30.110Z,2.28
2017-11-12T04:44:40.717Z,2.33
2017-11-12T04:45:51.160Z,2.31
2017-11-12T04:47:01.070Z,2.37
2017-11-12T04:48:11.561Z,2.27
2017-11-12T04:49:22.067Z,2.28
2017-11-12T04:50:32.189Z,2.26
2017-11-12T04:51:41.939Z,2.44
2017-11-12T04:52:52.482Z,2.27
2017-11-12T04:54:02.615Z,2.31
2017-11-12T04:55:13.097Z,2.3
2017-11-12T04:56:23.543Z,2.39
2017-11-12T04:57:34.078Z,2.37
2017-11-12T04:58:44.153Z,2.41
2017-11-12T04:59:54.286Z,2.37
2017-11-12T05:01:04.455Z,2.33
2017-11-12T05:02:14.960Z,2.36
2017-11-12T05:03:24.849Z,2.3
2017-11-12T05:04:35.333Z,2.31
2017-11-12T05:05:45.776Z,2.27
2017-11-12T05:06:56.233Z,2.31
2017-11-12T05:08:06.424Z,2.19
2017-11-12T05:09:16.895Z,2.26
2017-11-12T05:10:27.480Z,2.26
2017-11-12T05:11:37.718Z,2.24
2017-11-12T05:12:47.882Z,2.19
2017-11-12T05:13:58.064Z,2.27
2017-11-12T05:15:08.230Z,2.26
2017-11-12T05:16:18.410Z,2.3
2017-11-12T05:17:28.863Z,2.26
2017-11-12T05:18:39.285Z,2.26
2017-11-12T05:19:49.738Z,2.24
2017-11-12T05:21:00.320Z,2.15
2017-11-12T05:22:10.804Z,2.13
2017-11-12T05:23:20.825Z,2.08
2017-11-12T05:24:30.651Z,2.19
2017-11-12T05:26:13.021Z,2.06
2017-11-12T05:27:23.495Z,2.06
2017-11-12T05:28:33.989Z,1.98
2017-11-12T05:29:44.495Z,2
2017-11-12T05:30:54.952Z,1.92
2017-11-12T05:32:05.423Z,1.92
2017-11-12T05:33:15.536Z,1.88
2017-11-12T05:34:26.059Z,1.76
2017-11-12T05:35:36.101Z,1.84
2017-11-12T05:36:46.595Z,1.85
2017-11-12T05:37:57.051Z,1.72
2017-11-12T05:39:07.189Z,1.73
2017-11-12T05:40:17.321Z,1.73
2017-11-12T05:41:27.883Z,1.6
2017-11-12T05:42:38.414Z,1.73
2017-11-12T05:43:48.862Z,1.57
2017-11-12T05:44:59.335Z,1.7
2017-11-12T05:46:09.793Z,1.64
2017-11-12T05:47:19.916Z,1.6
2017-11-12T05:48:30.393Z,1.62
2017-11-12T05:49:40.841Z,1.58
2017-11-12T05:50:50.880Z,1.58
2017-11-12T05:52:01.351Z,1.55
2017-11-12T05:53:11.098Z,1.62
2017-11-12T05:54:21.520Z,1.57
2017-11-12T05:55:31.631Z,1.57
2017-11-12T05:56:41.771Z,1.53
2017-11-12T05:57:52.305Z,1.53
2017-11-12T05:59:01.669Z,1.55
2017-11-12T06:00:12.170Z,1.53
2017-11-12T06:01:22.647Z,1.54
2017-11-12T06:02:32.751Z,1.55
2017-11-12T06:03:42.942Z,1.54
2017-11-12T06:04:53.623Z,1.46
2017-11-12T06:06:04.092Z,1.55
2017-11-12T06:07:14.231Z,1.47
2017-11-12T06:08:24.791Z,1.48
2017-11-12T06:09:35.258Z,1.58
2017-11-12T06:10:45.804Z,1.4
2017-11-12T06:11:56.020Z,1.46
2017-11-12T06:13:06.134Z,1.35
2017-11-12T06:14:15.927Z,1.38
2017-11-12T06:15:26.028Z,1.35
2017-11-12T06:16:36.523Z,1.4
2017-11-12T06:17:47.005Z,1.5
2017-11-12T06:18:57.136Z,1.46
2017-11-12T06:20:07.648Z,1.39
2017-11-12T06:21:18.098Z,1.43
2017-11-12T06:22:28.412Z,1.42
2017-11-12T06:23:38.492Z,1.43
2017-11-12T06:24:48.506Z,1.42
2017-11-12T06:25:59.101Z,1.5
2017-11-12T06:27:09.219Z,1.39
2017-11-12T06:28:19.054Z,1.48
2017-11-12T06:29:29.518Z,1.4
2017-11-12T06:30:39.544Z,1.42
2017-11-12T06:31:50.274Z,1.3
2017-11-12T06:33:00.703Z,1.38
2017-11-12T06:34:11.214Z,1.3
2017-11-12T06:35:21.649Z,1.43
2017-11-12T06:36:32.257Z,1.42
2017-11-12T06:37:42.304Z,1.48
2017-11-12T06:38:52.776Z,1.54
2017-11-12T06:40:03.083Z,1.58
2017-11-12T06:41:12.880Z,1.54
2017-11-12T06:42:23.369Z,1.57
2017-11-12T06:43:33.869Z,1.69
2017-11-12T06:44:44.306Z,1.72
2017-11-12T06:45:54.434Z,1.7
2017-11-12T06:47:04.917Z,1.79
2017-11-12T06:48:15.032Z,1.76
2017-11-12T06:49:25.211Z,1.8
2017-11-12T06:50:35.325Z,1.84
2017-11-12T06:51:45.995Z,1.8
2017-11-12T06:52:56.493Z,1.9
2017-11-12T06:54:06.966Z,1.87
2017-11-12T06:55:17.216Z,1.87
2017-11-12T06:56:27.667Z,1.85
2017-11-12T06:57:37.846Z,1.85
2017-11-12T06:58:47.913Z,1.87
2017-11-12T06:59:58.052Z,1.87
2017-11-12T07:01:08.712Z,1.94
2017-11-12T07:02:19.179Z,1.95
2017-11-12T07:03:29.667Z,1.91
2017-11-12T07:04:40.103Z,1.92
2017-11-12T07:05:50.238Z,2.03
2017-11-12T07:07:00.775Z,2.03
2017-11-12T07:08:10.932Z,2.05
2017-11-12T07:09:21.396Z,2.08
2017-11-12T07:10:31.874Z,1.98
2017-11-12T07:11:42.345Z,2.05
2017-11-12T07:12:52.889Z,2.03
2017-11-12T07:14:02.927Z,2
2017-11-12T07:15:12.615Z,1.94
2017-11-12T07:16:23.133Z,2.06
2017-11-12T07:17:33.396Z,2.01
2017-11-12T07:18:42.518Z,2.1
2017-11-12T07:19:52.966Z,2.18
2017-11-12T07:21:03.389Z,2.16
2017-11-12T07:22:13.853Z,2.23
2017-11-12T07:23:24.314Z,2.31
2017-11-12T07:24:34.792Z,2.3
2017-11-12T07:25:44.959Z,2.33
2017-11-12T07:26:55.411Z,2.37
2017-11-12T07:28:05.211Z,2.31
2017-11-12T07:29:15.687Z,2.39
2017-11-12T07:30:25.899Z,2.42
2017-11-12T07:31:36.337Z,2.41
2017-11-12T07:32:46.450Z,2.45
2017-11-12T07:33:56.939Z,2.42
2017-11-12T07:35:07.052Z,2.45
2017-11-12T07:36:16.535Z,2.44
2017-11-12T07:37:26.998Z,2.49
2017-11-12T07:38:37.018Z,2.42
2017-11-12T07:39:46.731Z,2.51
2017-11-12T07:40:56.944Z,2.56
2017-11-12T07:42:07.088Z,2.59
2017-11-12T07:43:17.270Z,2.53
2017-11-12T07:44:27.737Z,2.66
2017-11-12T07:45:37.856Z,2.64
2017-11-12T07:46:48.017Z,2.7
2017-11-12T07:47:58.485Z,2.71
2017-11-12T07:49:08.405Z,2.73
2017-11-12T07:50:18.949Z,2.74
2017-11-12T07:51:28.998Z,2.79
2017-11-12T07:52:39.495Z,2.79
2017-11-12T07:53:49.973Z,2.81
2017-11-12T07:55:00.193Z,2.85
2017-11-12T07:56:10.340Z,2.82
2017-11-12T07:57:20.789Z,2.87
2017-11-12T07:58:30.968Z,2.84
2017-11-12T07:59:41.105Z,2.78
2017-11-12T08:00:51.196Z,2.84
2017-11-12T08:02:01.344Z,2.74
2017-11-12T08:03:11.793Z,2.87
2017-11-12T08:04:21.973Z,2.77
2017-11-12T08:05:32.663Z,2.73
2017-11-12T08:06:42.781Z,2.71
2017-11-12T08:07:53.319Z,2.77
2017-11-12T08:09:03.793Z,2.73
2017-11-12T08:10:13.924Z,2.81
2017-11-12T08:11:24.483Z,2.85
2017-11-12T08:12:34.956Z,2.82
2017-11-12T08:13:45.403Z,2.85
2017-11-12T08:14:55.535Z,2.87
2017-11-12T08:16:06.009Z,2.81
2017-11-12T08:17:15.727Z,2.88
2017-11-12T08:18:26.421Z,2.81
2017-11-12T08:19:36.900Z,2.82
2017-11-12T08:20:47.356Z,2.89
2017-11-12T08:21:57.828Z,2.81
2017-11-12T08:23:08.280Z,2.87
2017-11-12T08:24:18.506Z,2.89
2017-11-12T08:25:28.537Z,2.88
2017-11-12T08:26:39.005Z,2.87
2017-11-12T08:27:49.526Z,2.82
2017-11-12T08:28:59.660Z,2.91
2017-11-12T08:30:10.231Z,2.84
2017-11-12T08:31:20.743Z,2.97
2017-11-12T08:32:31.223Z,3.1
2017-11-12T08:33:40.286Z,3.22
2017-11-12T08:34:50.886Z,3.28
2017-11-12T08:36:01.346Z,3.39
2017-11-12T08:37:11.816Z,3.36
2017-11-12T08:38:21.868Z,3.49
2017-11-12T08:39:31.986Z,3.55
2017-11-12T08:40:42.486Z,3.52
2017-11-12T08:41:53.612Z,3.61
2017-11-12T08:43:03.733Z,3.55
2017-11-12T08:44:14.220Z,3.55
2017-11-12T08:45:24.375Z,3.55
2017-11-12T08:46:34.539Z,3.55
2017-11-12T08:47:44.876Z,3.54
2017-11-12T08:48:55.333Z,3.59
2017-11-12T08:50:05.837Z,3.59
2017-11-12T08:51:16.287Z,3.57
2017-11-12T08:52:26.773Z,3.49
2017-11-12T08:53:37.230Z,3.46
2017-11-12T08:54:47.361Z,3.4
2017-11-12T08:55:57.640Z,3.37
2017-11-12T08:57:09.149Z,3.29
2017-11-12T08:58:19.662Z,3.25
2017-11-12T08:59:30.130Z,3.25
2017-11-12T09:00:40.724Z,3.21
2017-11-12T09:01:51.349Z,3.13
2017-11-12T09:03:01.188Z,3.18
2017-11-12T09:04:11.765Z,3.07
2017-11-12T09:05:22.691Z,3.07
2017-11-12T09:06:33.180Z,3.04
2017-11-12T09:07:43.630Z,3.06
2017-11-12T09:08:54.254Z,3.08
2017-11-12T09:10:04.553Z,3.02
2017-11-12T09:11:14.668Z,3.04
2017-11-12T09:12:24.861Z,2.99
2017-11-12T09:13:35.004Z,3.04
2017-11-12T09:14:44.828Z,3.02
2017-11-12T09:15:55.336Z,3.02
2017-11-12T09:17:05.142Z,3.07
2017-11-12T09:18:15.331Z,3.1
2017-11-12T09:19:25.386Z,3.13
2017-11-12T09:20:35.861Z,3.13
2017-11-12T09:21:46.316Z,3.21
2017-11-12T09:22:56.476Z,3.24
2017-11-12T09:24:07.154Z,3.19
2017-11-12T09:25:17.300Z,3.29
2017-11-12T09:26:27.752Z,3.26
2017-11-12T09:27:37.886Z,3.37
2017-11-12T09:28:48.368Z,3.37
2017-11-12T09:29:58.502Z,3.46
2017-11-12T09:31:09.016Z,3.43
2017-11-12T09:32:19.470Z,3.57
2017-11-12T09:33:29.978Z,3.52
2017-11-12T09:34:40.448Z,3.58
2017-11-12T09:35:50.915Z,3.64
2017-11-12T09:37:01.057Z,3.61
2017-11-12T09:38:11.519Z,3.59
2017-11-12T09:39:21.980Z,3.73
2017-11-12T09:40:32.011Z,3.69
2017-11-12T09:41:42.492Z,3.83
2017-11-12T09:42:53.003Z,3.93
2017-11-12T09:44:03.176Z,4.01
2017-11-12T09:45:13.648Z,4.16
2017-11-12T09:46:23.815Z,4.22
2017-11-12T09:47:34.061Z,4.36
2017-11-12T09:48:44.552Z,4.47
2017-11-12T09:49:55.044Z,4.55
2017-11-12T09:51:05.223Z,4.68
2017-11-12T09:52:15.424Z,4.83
2017-11-12T09:53:25.969Z,4.9
2017-11-12T09:54:36.448Z,5.17
2017-11-12T09:55:46.572Z,5.29
2017-11-12T09:56:56.515Z,5.69
2017-11-12T09:58:06.600Z,6.06
2017-11-12T09:59:17.278Z,6.53
2017-11-12T10:00:27.809Z,7.24
2017-11-12T10:01:37.959Z,7.77
2017-11-12T10:02:48.148Z,8.37
2017-11-12T10:03:58.707Z,9.01
2017-11-12T10:05:08.887Z,9.62
2017-11-12T10:06:19.393Z,10.26
2017-11-12T10:07:29.877Z,10.73
2017-11-12T10:08:40.169Z,11.34
2017-11-12T10:09:50.684Z,11.48
2017-11-12T10:11:01.169Z,11.2
2017-11-12T10:12:11.479Z,11.06
2017-11-12T10:13:21.645Z,11.06
2017-11-12T10:14:31.825Z,10.92
2017-11-12T10:15:42.381Z,11.05
2017-11-12T10:16:53.261Z,10.97
2017-11-12T10:18:03.737Z,11.02
2017-11-12T10:19:13.886Z,11.09
2017-11-12T10:20:24.167Z,10.98
2017-11-12T10:21:34.675Z,11.02
2017-11-12T10:22:45.139Z,10.8
2017-11-12T10:23:55.642Z,10.61
2017-11-12T10:25:06.103Z,10.58
2017-11-12T10:26:16.364Z,10.4
2017-11-12T10:27:26.538Z,10.3
2017-11-12T10:28:36.695Z,10.37
2017-11-12T10:29:47.241Z,10.3
2017-11-12T10:30:57.407Z,10.11
2017-11-12T10:32:07.576Z,9.83
2017-11-12T10:33:17.721Z,9.55
2017-11-12T10:34:28.262Z,9.29
2017-11-12T10:35:38.108Z,9.09
2017-11-12T10:36:48.694Z,8.93
2017-11-12T10:37:58.733Z,8.63
2017-11-12T10:39:08.940Z,8.52
2017-11-12T10:40:19.428Z,8.4
2017-11-12T10:41:29.919Z,8.42
2017-11-12T10:42:39.298Z,8.52
2017-11-12T10:43:49.649Z,8.53
2017-11-12T10:44:59.803Z,8.74
2017-11-12T10:46:10.721Z,9.11
2017-11-12T10:47:20.866Z,9.52
2017-11-12T10:48:31.415Z,9.95
2017-11-12T10:49:41.876Z,10.29
2017-11-12T10:50:53.653Z,10.63
2017-11-12T10:52:04.128Z,10.79
2017-11-12T10:53:14.718Z,10.88
2017-11-12T10:54:25.228Z,10.98
2017-11-12T10:55:35.380Z,10.84
2017-11-12T10:56:45.883Z,10.72
2017-11-12T10:57:56.375Z,10.42
2017-11-12T10:59:06.217Z,10.37
2017-11-12T11:00:16.878Z,10.02
2017-11-12T11:01:27.294Z,9.73
2017-11-12T11:02:37.889Z,9.35
2017-11-12T11:03:48.427Z,9.04
2017-11-12T11:04:58.738Z,8.6
2017-11-12T11:06:09.290Z,8.48
2017-11-12T11:07:19.763Z,8.23
2017-11-12T11:08:30.490Z,8.06
2017-11-12T11:09:40.994Z,7.88
2017-11-12T11:10:50.726Z,7.69
2017-11-12T11:12:00.580Z,7.48
2017-11-12T11:13:10.751Z,7.28
2017-11-12T11:14:20.859Z,7.13
2017-11-12T11:15:30.839Z,6.96
2017-11-12T11:16:41.009Z,6.81
2017-11-12T11:17:51.598Z,6.59
2017-11-12T11:19:02.061Z,6.53
2017-11-12T11:20:12.596Z,6.41
2017-11-12T11:21:23.054Z,6.44
2017-11-12T11:22:33.432Z,6.35
2017-11-12T11:23:43.911Z,6.38
2017-11-12T11:24:54.355Z,6.28
2017-11-12T11:26:03.761Z,6.12
2017-11-12T11:27:13.597Z,6.17
2017-11-12T11:28:23.814Z,6.03
2017-11-12T11:29:34.321Z,6.12
2017-11-12T11:30:44.987Z,6.06
2017-11-12T11:31:55.742Z,6.09
2017-11-12T11:33:05.868Z,6.11
2017-11-12T11:34:16.000Z,5.94
2017-11-12T11:35:26.469Z,6.05
2017-11-12T11:36:37.017Z,5.98
2017-11-12T11:37:47.204Z,5.91
2017-11-12T11:38:57.684Z,5.88
2017-11-12T11:40:08.534Z,5.83
2017-11-12T11:41:19.022Z,5.88
2017-11-12T11:42:29.204Z,5.77
2017-11-12T11:43:39.713Z,5.69
2017-11-12T11:44:49.525Z,5.67
2017-11-12T11:46:00.046Z,5.56
2017-11-12T11:47:10.538Z,5.59
2017-11-12T11:48:21.124Z,5.61
2017-11-12T11:49:31.221Z,5.43
2017-11-12T11:50:41.717Z,5.46
2017-11-12T11:51:52.252Z,5.41
2017-11-12T11:53:02.757Z,5.46
2017-11-12T11:54:13.253Z,5.47
2017-11-12T11:55:23.721Z,5.47
2017-11-12T11:56:34.240Z,5.41
2017-11-12T11:57:44.797Z,5.43
2017-11-12T11:58:55.321Z,5.61
2017-11-12T12:00:05.894Z,5.58
2017-11-12T12:01:15.948Z,5.56
2017-11-12T12:02:25.782Z,5.69
2017-11-12T12:03:35.937Z,5.67
2017-11-12T12:04:46.447Z,5.83
2017-11-12T12:05:56.943Z,5.93
2017-11-12T12:07:07.440Z,5.9
2017-11-12T12:08:17.600Z,5.96
2017-11-12T12:09:28.069Z,6.01
2017-11-12T12:10:38.258Z,6.05
2017-11-12T12:11:48.758Z,6.01
2017-11-12T12:12:59.211Z,5.99
2017-11-12T12:14:09.718Z,5.98
2017-11-12T12:15:19.441Z,6.05
2017-11-12T12:16:29.656Z,6.06
2017-11-12T12:17:39.747Z,6.08
2017-11-12T12:18:50.238Z,6.03
2017-11-12T12:20:00.066Z,6.26
2017-11-12T12:21:10.535Z,6.46
2017-11-12T12:22:21.175Z,6.79
2017-11-12T12:23:31.661Z,7.26
2017-11-12T12:24:41.935Z,7.62
2017-11-12T12:25:52.435Z,7.92
2017-11-12T12:27:03.014Z,8.32
2017-11-12T12:28:12.835Z,8.6
2017-11-12T12:29:22.654Z,9.07
2017-11-12T12:30:32.483Z,9.27
2017-11-12T12:31:43.200Z,9.33
2017-11-12T12:32:53.765Z,9.45
2017-11-12T12:34:03.925Z,9.63
2017-11-12T12:35:14.466Z,9.84
2017-11-12T12:36:25.001Z,9.98
2017-11-12T12:37:35.220Z,9.98
2017-11-12T12:38:45.826Z,10
2017-11-12T12:39:55.336Z,9.95
2017-11-12T12:41:05.842Z,9.85
2017-11-12T12:42:16.315Z,9.77
2017-11-12T12:43:26.822Z,9.55
2017-11-12T12:44:37.365Z,9.25
2017-11-12T12:45:47.615Z,8.8
2017-11-12T12:46:58.099Z,8.58
2017-11-12T12:48:08.261Z,8.43
2017-11-12T12:49:18.323Z,8.16
2017-11-12T12:50:28.529Z,7.88
2017-11-12T12:51:38.669Z,7.77
2017-11-12T12:52:49.273Z,7.7
2017-11-12T12:54:00.053Z,7.48
2017-11-12T12:55:10.589Z,7.39
2017-11-12T12:56:21.134Z,7.22
2017-11-12T12:57:31.673Z,7.26
2017-11-12T12:58:41.827Z,7.26
2017-11-12T12:59:52.618Z,7.17
2017-11-12T13:01:03.188Z,7.21
2017-11-12T13:02:13.369Z,7
2017-11-12T13:03:23.862Z,6.93
2017-11-12T13:04:34.367Z,6.9
2017-11-12T13:05:45.066Z,6.77
2017-11-12T13:06:55.607Z,6.75
2017-11-12T13:08:05.819Z,6.64
2017-11-12T13:09:16.409Z,6.64
2017-11-12T13:10:26.883Z,6.49
2017-11-12T13:11:37.402Z,6.42
2017-11-12T13:12:47.580Z,6.31
2017-11-12T13:13:57.645Z,6.24
2017-11-12T13:15:08.132Z,6.08
2017-11-12T13:16:18.595Z,6.05
2017-11-12T13:17:28.472Z,6.05
2017-11-12T13:18:38.963Z,5.99
2017-11-12T13:19:49.085Z,6.08
2017-11-12T13:20:59.592Z,6.01
2017-11-12T13:22:09.760Z,5.93
2017-11-12T13:23:19.605Z,5.96
2017-11-12T13:24:29.815Z,5.96
2017-11-12T13:25:39.851Z,5.9
2017-11-12T13:26:50.561Z,5.84
2017-11-12T13:28:01.098Z,5.74
2017-11-12T13:29:11.697Z,5.91
2017-11-12T13:30:22.196Z,5.75
2017-11-12T13:31:32.736Z,5.88
2017-11-12T13:32:42.828Z,5.88
2017-11-12T13:33:53.416Z,5.84
2017-11-12T13:35:03.908Z,5.82
2017-11-12T13:36:14.187Z,5.9
2017-11-12T13:37:24.698Z,5.86
2017-11-12T13:38:35.222Z,5.83
2017-11-12T13:39:45.384Z,5.72
2017-11-12T13:40:55.899Z,5.83
2017-11-12T13:42:06.380Z,5.88
2017-11-12T13:43:16.870Z,5.8
2017-11-12T13:44:27.407Z,5.9
2017-11-12T13:45:36.838Z,5.69
2017-11-12T13:46:46.736Z,5.58
2017-11-12T13:47:57.261Z,5.49
2017-11-12T13:49:07.490Z,5.46
2017-11-12T13:50:18.033Z,5.38
2017-11-12T13:51:28.591Z,5.32
2017-11-12T13:52:39.444Z,5.21
2017-11-12T13:53:49.934Z,5.28
2017-11-12T13:55:00.420Z,5.33
2017-11-12T13:56:10.916Z,5.29
2017-11-12T13:57:21.414Z,5.29
2017-11-12T13:58:31.986Z,5.29
2017-11-12T13:59:42.211Z,5.32
2017-11-12T14:00:52.827Z,5.21
2017-11-12T14:02:03.078Z,5.16
2017-11-12T14:03:13.264Z,5.11
2017-11-12T14:04:23.773Z,5.04
2017-11-12T14:05:33.523Z,5
2017-11-12T14:06:44.153Z,4.96
2017-11-12T14:07:54.409Z,4.95
2017-11-12T14:09:04.625Z,4.93
2017-11-12T14:10:15.138Z,4.85
2017-11-12T14:11:25.884Z,4.8
2017-11-12T14:12:36.026Z,4.88
2017-11-12T14:13:46.221Z,4.89
2017-11-12T14:14:56.742Z,4.78
2017-11-12T14:16:07.260Z,4.86
2017-11-12T14:17:17.430Z,4.75
2017-11-12T14:18:27.555Z,4.77
2017-11-12T14:19:37.780Z,4.83
2017-11-12T14:20:48.280Z,4.78
2017-11-12T14:21:58.447Z,4.88
2017-11-12T14:23:08.994Z,4.83
2017-11-12T14:24:19.151Z,4.9
2017-11-12T14:25:29.681Z,4.95
2017-11-12T14:26:40.198Z,5.03
2017-11-12T14:27:50.785Z,5
2017-11-12T14:29:00.527Z,5.04
2017-11-12T14:30:11.052Z,5.07
2017-11-12T14:31:21.655Z,5
2017-11-12T14:32:31.505Z,4.95
2017-11-12T14:33:42.006Z,4.95
2017-11-12T14:34:53.187Z,4.9
2017-11-12T14:36:03.687Z,4.85
2017-11-12T14:37:14.189Z,4.96
2017-11-12T14:38:24.767Z,4.85
2017-11-12T14:39:34.505Z,4.81
2017-11-12T14:40:44.643Z,4.85
2017-11-12T14:41:54.472Z,4.77
2017-11-12T14:43:04.972Z,4.83
2017-11-12T14:44:15.475Z,4.85
2017-11-12T14:45:26.019Z,4.9
2017-11-12T14:46:35.852Z,4.95
2017-11-12T14:47:46.426Z,4.95
2017-11-12T14:48:55.925Z,4.93
2017-11-12T14:50:06.434Z,4.92
2017-11-12T14:51:16.176Z,4.98
2017-11-12T14:52:26.774Z,4.95
2017-11-12T14:53:36.207Z,4.96
2017-11-12T14:54:46.002Z,4.95
2017-11-12T14:55:56.513Z,4.95
2017-11-12T14:57:07.036Z,4.96
2017-11-12T14:58:17.597Z,4.93
2017-11-12T14:59:28.330Z,4.9
2017-11-12T15:00:39.015Z,4.83
2017-11-12T15:01:49.536Z,4.81
2017-11-12T15:03:00.131Z,4.71
2017-11-12T15:04:10.359Z,4.8
2017-11-12T15:05:20.872Z,4.71
2017-11-12T15:06:31.308Z,4.8
2017-11-12T15:07:41.499Z,4.78
2017-11-12T15:08:51.987Z,4.77
2017-11-12T15:10:02.176Z,4.78
2017-11-12T15:11:12.438Z,4.7
2017-11-12T15:12:23.080Z,4.89
2017-11-12T15:13:33.627Z,4.78
2017-11-12T15:14:44.155Z,4.83
2017-11-12T15:15:54.746Z,4.92
2017-11-12T15:17:05.298Z,4.92
2017-11-12T15:18:15.485Z,4.89
2017-11-12T15:19:26.007Z,4.95
2017-11-12T15:20:36.253Z,4.93
2017-11-12T15:21:46.970Z,4.9
2017-11-12T15:22:57.093Z,4.8
2017-11-12T15:24:07.335Z,4.81
2017-11-12T15:25:17.856Z,4.9
2017-11-12T15:26:28.346Z,4.93
2017-11-12T15:27:38.525Z,4.89
2017-11-12T15:28:49.181Z,4.96
2017-11-12T15:29:59.684Z,4.98
2017-11-12T15:31:09.621Z,4.99
2017-11-12T15:32:19.504Z,4.93
2017-11-12T15:33:30.107Z,4.98
2017-11-12T15:34:40.322Z,4.93
2017-11-12T15:35:50.880Z,4.99
2017-11-12T15:37:01.374Z,4.99
2017-11-12T15:38:12.004Z,5
2017-11-12T15:39:22.141Z,4.93